Temp: 17.2°C   Baro: 1010.5mb
  Wind: 6.0mph   Dir: WNW (285°)
  Rain: 0.8mm (0.0mm/hr)
  Solar: 97W/m2  Hum: 91%
 
Bath Spa Weather Station Historical Data
Daily Summary for November 11, 2019 Units:  Metric    English   Both
Daily Weekly Monthly Yearly Custom
  High: Low: Average:
Temperature: 9.8 °C 3.7 °C 7.1 °C
Dew Point: 7.2 °C 1.7 °C 4.2 °C
Humidity: 93% 69% 83%
Wind Speed: 21.2km/h 0km/h 8km/h
Wind Gust: 41.8km/h - -
Wind- - West
Pressure: 1007 hPa 1000.2 hPa -
Precipitation: 1.52 mm    
Historical Graphs
 
 
Tabular Data for November 11, 2019
Time Temperature Dew Point Pressure Wind Wind Speed Wind Gust Humidity Rainfall Rate (Hourly) solar
00:04 6.6 °C 5.2 °C 1007 hPa SE 1.3 km/h 9.7 km/h 91% 0.25 mm 0 W/m2
00:09 6.6 °C 5.2 °C 1006.7 hPa SSE 3.7 km/h 9.7 km/h 91% 0.25 mm 0 W/m2
00:14 6.7 °C 5.2 °C 1006.7 hPa SSE 3.2 km/h 9.7 km/h 91% 0.25 mm 0 W/m2
00:19 6.7 °C 5.3 °C 1006.3 hPa SSE 3.4 km/h 8 km/h 91% 0.25 mm 0 W/m2
00:24 6.7 °C 5.3 °C 1006.3 hPa SSE 1.3 km/h 9.7 km/h 91% 0.25 mm 0 W/m2
00:29 6.7 °C 5.3 °C 1006 hPa SSE 1.4 km/h 4.8 km/h 91% 0.25 mm 0 W/m2
00:34 6.7 °C 5.3 °C 1006 hPa SSE 0.3 km/h 1.6 km/h 91% 0.25 mm 0 W/m2
00:39 6.8 °C 5.4 °C 1005.6 hPa SSE 0.5 km/h 4.8 km/h 91% 0.25 mm 0 W/m2
00:44 6.8 °C 5.4 °C 1005.6 hPa SSE 1.8 km/h 8 km/h 91% 0.25 mm 0 W/m2
00:49 6.9 °C 5.5 °C 1005.6 hPa South 3.5 km/h 9.7 km/h 91% 0.25 mm 0 W/m2
00:54 7.1 °C 5.7 °C 1005.3 hPa South 3.4 km/h 8 km/h 91% 0 mm 0 W/m2
00:59 7.2 °C 5.8 °C 1005.3 hPa South 6.3 km/h 14.5 km/h 91.3% 0 mm 0 W/m2
01:04 7.3 °C 6.1 °C 1005 hPa South 2.4 km/h 14.5 km/h 92% 0 mm 0 W/m2
01:09 7.2 °C 5.9 °C 1005 hPa South 2.1 km/h 8 km/h 91.5% 0.25 mm 0 W/m2
01:14 7.3 °C 6.1 °C 1004.6 hPa South 3.9 km/h 9.7 km/h 92% 0.25 mm 0 W/m2
01:19 7.3 °C 6.1 °C 1004.6 hPa South 1.4 km/h 9.7 km/h 92% 0.25 mm 0 W/m2
01:24 7.3 °C 6.1 °C 1004.6 hPa South 2.3 km/h 6.4 km/h 92% 0.25 mm 0 W/m2
01:29 7.3 °C 6.1 °C 1004.3 hPa South 2.4 km/h 9.7 km/h 92% 0.25 mm 0 W/m2
01:34 7.3 °C 6.2 °C 1004.3 hPa South 2.3 km/h 6.4 km/h 92% 0.51 mm 0 W/m2
01:39 7.4 °C 6.3 °C 1004.3 hPa SSW 3.5 km/h 11.3 km/h 92% 0.51 mm 0 W/m2
01:44 7.6 °C 6.4 °C 1003.9 hPa SSW 2.6 km/h 11.3 km/h 92% 0.51 mm 0 W/m2
01:49 7.7 °C 6.5 °C 1003.9 hPa SSW 1.9 km/h 9.7 km/h 92% 0.51 mm 0 W/m2
01:54 7.8 °C 6.6 °C 1003.9 hPa SSW 1.8 km/h 11.3 km/h 92% 0.51 mm 0 W/m2
01:59 7.9 °C 6.7 °C 1003.6 hPa SSW 2.3 km/h 6.4 km/h 92% 0.51 mm 0 W/m2
02:04 7.9 °C 6.8 °C 1003.6 hPa SSW 3.9 km/h 8 km/h 92% 0.51 mm 0 W/m2
02:09 8.1 °C 6.8 °C 1003.3 hPa SSW 3.7 km/h 8 km/h 92% 0.51 mm 0 W/m2
02:14 8.1 °C 6.9 °C 1003.3 hPa SSW 3.4 km/h 9.7 km/h 92% 0.51 mm 0 W/m2
02:19 8.2 °C 6.9 °C 1002.9 hPa SW 7.6 km/h 19.3 km/h 92.2% 0.76 mm 0 W/m2
02:24 8.3 °C 7.2 °C 1002.9 hPa SW 7.2 km/h 19.3 km/h 93% 1.02 mm 0 W/m2
02:29 8.3 °C 7.2 °C 1002.6 hPa SW 9.7 km/h 22.5 km/h 93% 1.02 mm 0 W/m2
02:34 8.3 °C 7.2 °C 1002.6 hPa SW 12.7 km/h 24.1 km/h 93% 0.76 mm 0 W/m2
02:39 8.3 °C 7.1 °C 1002.3 hPa SW 10.1 km/h 20.9 km/h 92% 0.76 mm 0 W/m2
02:44 8.3 °C 7.1 °C 1002.3 hPa SW 13 km/h 32.2 km/h 92% 0.76 mm 0 W/m2
02:49 8.4 °C 7.2 °C 1002.3 hPa SW 15.6 km/h 37 km/h 91.8% 0.51 mm 0 W/m2
02:54 8.5 °C 7.1 °C 1001.9 hPa SW 9.3 km/h 22.5 km/h 91% 0.51 mm 0 W/m2
02:59 8.4 °C 7.1 °C 1001.9 hPa WSW 17.7 km/h 32.2 km/h 90.9% 0.51 mm 0 W/m2
03:04 8.6 °C 7.1 °C 1001.9 hPa WSW 16.3 km/h 32.2 km/h 90.1% 0.51 mm 0 W/m2
03:09 8.6 °C 7.1 °C 1001.6 hPa WSW 11.6 km/h 24.1 km/h 89.8% 0.51 mm 0 W/m2
03:14 8.6 °C 6.9 °C 1001.6 hPa SW 13.2 km/h 20.9 km/h 89% 0.51 mm 0 W/m2
03:19 8.6 °C 6.9 °C 1001.2 hPa WSW 12.6 km/h 24.1 km/h 89% 0.51 mm 0 W/m2
03:24 8.6 °C 6.9 °C 1001.2 hPa SW 10.6 km/h 24.1 km/h 89% 0.25 mm 0 W/m2
03:29 8.6 °C 6.9 °C 1001.2 hPa WSW 14.8 km/h 29 km/h 89% 0 mm 0 W/m2
03:34 8.6 °C 6.9 °C 1001.2 hPa WSW 16.9 km/h 30.6 km/h 89% 0.25 mm 0 W/m2
03:39 8.6 °C 6.7 °C 1000.9 hPa WSW 15.8 km/h 29 km/h 88% 0.25 mm 0 W/m2
03:44 8.5 °C 6.6 °C 1000.9 hPa WSW 16.4 km/h 29 km/h 88% 0.25 mm 0 W/m2
03:49 8.5 °C 6.6 °C 1000.6 hPa WSW 16.9 km/h 29 km/h 88% 0.25 mm 0 W/m2
03:54 8.4 °C 6.5 °C 1000.2 hPa WSW 14.5 km/h 32.2 km/h 88% 0.25 mm 0 W/m2
03:59 8.3 °C 6.4 °C 1000.6 hPa West 17.4 km/h 27.4 km/h 87.2% 0.25 mm 0 W/m2
04:04 8.1 °C 6.1 °C 1000.6 hPa WNW 18.7 km/h 33.8 km/h 86.9% 0.25 mm 0 W/m2
04:09 7.7 °C 5.6 °C 1000.9 hPa WNW 18.2 km/h 32.2 km/h 86% 0.25 mm 0 W/m2
04:14 7.3 °C 5.1 °C 1001.2 hPa WNW 18.8 km/h 41.8 km/h 85.6% 0.25 mm 0 W/m2
04:19 7.2 °C 4.8 °C 1001.2 hPa WNW 14.6 km/h 30.6 km/h 85.4% 0.25 mm 0 W/m2
04:24 7 °C 4.8 °C 1001.2 hPa WNW 14.8 km/h 25.7 km/h 86% 0.25 mm 0 W/m2
04:29 6.8 °C 4.7 °C 1001.6 hPa WNW 12.4 km/h 30.6 km/h 86% 0.25 mm 0 W/m2
04:34 6.7 °C 4.5 °C 1001.6 hPa WNW 12.9 km/h 30.6 km/h 86% 0.25 mm 0 W/m2
04:39 6.6 °C 4.4 °C 1001.9 hPa WNW 11.4 km/h 20.9 km/h 86.1% 0 mm 0 W/m2
04:44 6.5 °C 4.5 °C 1001.9 hPa NW 8.4 km/h 20.9 km/h 87% 0 mm 0 W/m2
04:49 6.4 °C 4.4 °C 1001.9 hPa WNW 6.3 km/h 12.9 km/h 87% 0 mm 0 W/m2
04:54 6.3 °C 4.3 °C 1001.9 hPa WNW 5.8 km/h 12.9 km/h 87% 0 mm 0 W/m2
04:59 6.2 °C 4.2 °C 1001.9 hPa WNW 6.3 km/h 17.7 km/h 87% 0 mm 0 W/m2
05:04 6.1 °C 4.1 °C 1001.9 hPa NW 7.9 km/h 17.7 km/h 87% 0 mm 0 W/m2
05:09 6.1 °C 4.2 °C 1001.9 hPa WNW 8.5 km/h 16.1 km/h 87.8% 0 mm 0 W/m2
05:14 6.1 °C 4.3 °C 1001.9 hPa NW 7.2 km/h 16.1 km/h 88% 0 mm 0 W/m2
05:19 6.1 °C 4.3 °C 1001.9 hPa WNW 3.9 km/h 16.1 km/h 88% 0 mm 0 W/m2
05:24 6.1 °C 4.3 °C 1001.9 hPa WNW 5.1 km/h 12.9 km/h 88% 0 mm 0 W/m2
05:29 5.9 °C 4.2 °C 1001.9 hPa WNW 2.7 km/h 12.9 km/h 88% 0 mm 0 W/m2
05:34 5.9 °C 4.1 °C 1001.9 hPa WNW 2.6 km/h 6.4 km/h 88% 0 mm 0 W/m2
05:39 5.8 °C 4.1 °C 1001.9 hPa WNW 4.2 km/h 9.7 km/h 88.6% 0 mm 0 W/m2
05:44 5.7 °C 4 °C 1001.9 hPa WNW 1.4 km/h 6.4 km/h 89% 0 mm 0 W/m2
05:49 5.6 °C 3.9 °C 1001.9 hPa WNW 2.6 km/h 11.3 km/h 89% 0 mm 0 W/m2
05:54 5.6 °C 3.9 °C 1001.9 hPa WNW 4.5 km/h 8 km/h 89% 0 mm 0 W/m2
05:59 5.6 °C 3.9 °C 1002.3 hPa WNW 5.1 km/h 11.3 km/h 89% 0 mm 0 W/m2
06:04 5.6 °C 3.9 °C 1002.3 hPa WNW 5 km/h 9.7 km/h 89% 0 mm 0 W/m2
06:09 5.6 °C 3.9 °C 1002.3 hPa West 4.3 km/h 8 km/h 89% 0 mm 0 W/m2
06:14 5.6 °C 3.8 °C 1002.3 hPa West 4 km/h 6.4 km/h 89% 0 mm 0 W/m2
06:19 5.5 °C 3.8 °C 1002.3 hPa West 3.4 km/h 8 km/h 89% 0 mm 0 W/m2
06:24 5.5 °C 3.8 °C 1002.3 hPa West 3.7 km/h 6.4 km/h 89.1% 0 mm 0 W/m2
06:29 5.4 °C 3.7 °C 1002.3 hPa West 3.4 km/h 6.4 km/h 89% 0 mm 0 W/m2
06:34 5.5 °C 3.9 °C 1002.3 hPa WNW 4.2 km/h 11.3 km/h 89.7% 0 mm 0 W/m2
06:39 5.5 °C 4 °C 1002.3 hPa WNW 4.3 km/h 9.7 km/h 90% 0 mm 0 W/m2
06:44 5.4 °C 3.9 °C 1002.3 hPa WNW 6.1 km/h 12.9 km/h 90% 0 mm 0 W/m2
06:49 5.6 °C 4.1 °C 1002.3 hPa WNW 6.4 km/h 12.9 km/h 90% 0 mm 0 W/m2
06:54 5.7 °C 4.2 °C 1002.3 hPa WNW 5.1 km/h 11.3 km/h 90% 0 mm 0 W/m2
06:59 5.7 °C 4.2 °C 1002.6 hPa WNW 5.6 km/h 11.3 km/h 90% 0 mm 0 W/m2
07:04 5.7 °C 4.2 °C 1002.6 hPa WNW 2.9 km/h 11.3 km/h 90% 0 mm 0 W/m2
07:09 5.8 °C 4.2 °C 1002.6 hPa WNW 5 km/h 9.7 km/h 89.5% 0 mm 0 W/m2
07:14 5.8 °C 4.1 °C 1002.6 hPa WNW 6.1 km/h 12.9 km/h 89% 0 mm 0 W/m2
07:19 5.7 °C 4.1 °C 1002.6 hPa WNW 4.7 km/h 9.7 km/h 89% 0 mm 5 W/m2
07:24 5.7 °C 4 °C 1002.6 hPa WNW 3.9 km/h 9.7 km/h 89% 0 mm 9 W/m2
07:29 5.7 °C 4 °C 1002.9 hPa WNW 2.7 km/h 6.4 km/h 89% 0 mm 19 W/m2
07:34 5.7 °C 4.1 °C 1002.9 hPa WNW 4.5 km/h 9.7 km/h 89% 0 mm 21 W/m2
07:39 5.8 °C 4.1 °C 1002.9 hPa WNW 4.5 km/h 9.7 km/h 89% 0 mm 26 W/m2
07:44 5.9 °C 4.2 °C 1002.9 hPa WNW 3.9 km/h 8 km/h 89% 0 mm 18 W/m2
07:49 6.1 °C 4.4 °C 1002.9 hPa WNW 4.3 km/h 9.7 km/h 89% 0 mm 35 W/m2
07:54 6.2 °C 4.5 °C 1002.9 hPa WNW 6.1 km/h 11.3 km/h 89% 0 mm 35 W/m2
07:59 6.3 °C 4.6 °C 1003.3 hPa WNW 5.5 km/h 9.7 km/h 89% 0 mm 40 W/m2
08:04 6.3 °C 4.6 °C 1003.3 hPa WNW 5.6 km/h 11.3 km/h 89% 0 mm 39 W/m2
08:09 6.3 °C 4.6 °C 1003.3 hPa WNW 7.2 km/h 12.9 km/h 88.7% 0 mm 35 W/m2
08:14 6.3 °C 4.5 °C 1003.3 hPa WNW 6 km/h 12.9 km/h 88% 0 mm 32 W/m2
08:19 6.3 °C 4.5 °C 1003.3 hPa WNW 8 km/h 14.5 km/h 88% 0 mm 37 W/m2
08:24 6.3 °C 4.5 °C 1003.3 hPa WNW 8.4 km/h 16.1 km/h 88% 0 mm 39 W/m2
08:29 6.3 °C 4.6 °C 1003.6 hPa WNW 8.5 km/h 14.5 km/h 88% 0 mm 76 W/m2
08:34 6.6 °C 4.7 °C 1003.6 hPa West 8.4 km/h 17.7 km/h 87.8% 0 mm 76 W/m2
08:39 6.6 °C 4.6 °C 1003.6 hPa West 7.7 km/h 16.1 km/h 87.1% 0 mm 51 W/m2
08:44 6.7 °C 4.7 °C 1003.6 hPa WNW 10.5 km/h 17.7 km/h 87% 0 mm 60 W/m2
08:49 6.7 °C 4.7 °C 1003.6 hPa West 8.4 km/h 17.7 km/h 86.6% 0 mm 107 W/m2
08:54 6.8 °C 4.7 °C 1003.6 hPa WNW 11.3 km/h 19.3 km/h 86.1% 0 mm 105 W/m2
08:59 7 °C 4.8 °C 1003.6 hPa WNW 13 km/h 25.7 km/h 86% 0 mm 142 W/m2
09:04 7.2 °C 5 °C 1003.6 hPa WNW 10.6 km/h 25.7 km/h 86% 0 mm 146 W/m2
09:09 7.3 °C 4.9 °C 1003.6 hPa WNW 14.6 km/h 25.7 km/h 85.2% 0 mm 197 W/m2
09:14 7.4 °C 5 °C 1003.6 hPa WNW 11.3 km/h 25.7 km/h 85% 0 mm 186 W/m2
09:19 7.6 °C 5.1 °C 1003.6 hPa WNW 10.5 km/h 22.5 km/h 84.4% 0 mm 123 W/m2
09:24 7.6 °C 5.1 °C 1003.6 hPa WNW 11.9 km/h 22.5 km/h 84% 0 mm 155 W/m2
09:29 7.6 °C 5.1 °C 1003.6 hPa WNW 14.8 km/h 24.1 km/h 84% 0 mm 151 W/m2
09:34 7.6 °C 4.9 °C 1003.6 hPa WNW 11.7 km/h 19.3 km/h 83% 0 mm 165 W/m2
09:39 7.7 °C 4.9 °C 1003.6 hPa West 13 km/h 25.7 km/h 83% 0 mm 174 W/m2
09:44 7.8 °C 4.9 °C 1003.6 hPa WNW 13.4 km/h 25.7 km/h 82.4% 0 mm 188 W/m2
09:49 7.9 °C 5 °C 1003.6 hPa West 11.3 km/h 24.1 km/h 82% 0 mm 206 W/m2
09:54 8.1 °C 5.2 °C 1003.6 hPa West 10.9 km/h 17.7 km/h 82% 0 mm 185 W/m2
09:59 8.1 °C 4.9 °C 1003.6 hPa WNW 11.3 km/h 17.7 km/h 81.1% 0 mm 181 W/m2
10:04 8 °C 4.9 °C 1003.6 hPa WNW 11.3 km/h 24.1 km/h 80.8% 0 mm 193 W/m2
10:09 8.1 °C 5 °C 1003.6 hPa West 12.6 km/h 27.4 km/h 80.8% 0 mm 199 W/m2
10:14 8.1 °C 4.9 °C 1003.9 hPa WNW 13.4 km/h 27.4 km/h 80% 0 mm 209 W/m2
10:19 8.1 °C 4.8 °C 1003.9 hPa West 13.2 km/h 24.1 km/h 79.5% 0 mm 239 W/m2
10:24 8.1 °C 4.7 °C 1003.9 hPa West 10.8 km/h 20.9 km/h 79% 0 mm 264 W/m2
10:29 8.2 °C 4.8 °C 1003.9 hPa West 16.7 km/h 25.7 km/h 79% 0 mm 257 W/m2
10:34 8.3 °C 4.8 °C 1003.9 hPa WNW 13.4 km/h 25.7 km/h 78.6% 0 mm 258 W/m2
10:39 8.4 °C 4.8 °C 1003.9 hPa WNW 17.2 km/h 32.2 km/h 78% 0 mm 267 W/m2
10:44 8.4 °C 4.8 °C 1003.9 hPa West 10.8 km/h 24.1 km/h 78% 0 mm 272 W/m2
10:49 8.4 °C 4.8 °C 1003.9 hPa WNW 14.8 km/h 27.4 km/h 78% 0 mm 272 W/m2
10:54 8.3 °C 4.7 °C 1003.9 hPa West 11.9 km/h 27.4 km/h 78% 0 mm 214 W/m2
10:59 8.4 °C 4.8 °C 1003.9 hPa WNW 12.1 km/h 24.1 km/h 78% 0 mm 246 W/m2
11:04 8.3 °C 4.8 °C 1003.6 hPa WNW 14 km/h 32.2 km/h 78% 0 mm 281 W/m2
11:09 8.4 °C 4.7 °C 1003.6 hPa WNW 16.7 km/h 32.2 km/h 77.3% 0 mm 279 W/m2
11:14 8.6 °C 4.7 °C 1003.6 hPa WNW 17.4 km/h 32.2 km/h 76.9% 0 mm 279 W/m2
11:19 8.7 °C 4.7 °C 1003.6 hPa WNW 12.7 km/h 32.2 km/h 76% 0 mm 276 W/m2
11:24 8.8 °C 4.7 °C 1003.3 hPa WNW 13 km/h 24.1 km/h 75.2% 0 mm 281 W/m2
11:29 8.9 °C 4.8 °C 1003.3 hPa WNW 13.4 km/h 27.4 km/h 75% 0 mm 287 W/m2
11:34 8.9 °C 4.5 °C 1003.3 hPa WNW 16.7 km/h 27.4 km/h 74.1% 0 mm 290 W/m2
11:39 8.9 °C 4.6 °C 1003.3 hPa WNW 12.2 km/h 29 km/h 74% 0 mm 299 W/m2
11:44 9.1 °C 4.8 °C 1003.3 hPa WNW 15.6 km/h 29 km/h 74.7% 0 mm 315 W/m2
11:49 9.1 °C 4.8 °C 1003.3 hPa West 15.1 km/h 32.2 km/h 75% 0 mm 350 W/m2
11:54 9.1 °C 4.9 °C 1003.3 hPa West 16.3 km/h 35.4 km/h 74.9% 0 mm 357 W/m2
11:59 9 °C 4.7 °C 1003.3 hPa WNW 14.2 km/h 30.6 km/h 74.8% 0 mm 355 W/m2
12:04 9.1 °C 4.9 °C 1002.9 hPa West 15.8 km/h 30.6 km/h 75% 0 mm 294 W/m2
12:09 9.2 °C 5 °C 1002.9 hPa WNW 17.2 km/h 29 km/h 75% 0 mm 325 W/m2
12:14 9.2 °C 4.8 °C 1003.3 hPa WNW 16.9 km/h 30.6 km/h 74.1% 0 mm 265 W/m2
12:19 9.1 °C 4.7 °C 1003.3 hPa West 19.3 km/h 30.6 km/h 74.3% 0 mm 357 W/m2
12:24 9.2 °C 4.9 °C 1003.3 hPa WNW 16.9 km/h 35.4 km/h 74.6% 0 mm 422 W/m2
12:29 9.3 °C 4.9 °C 1003.3 hPa WNW 15.8 km/h 35.4 km/h 74% 0 mm 413 W/m2
12:34 9.6 °C 5.2 °C 1003.3 hPa WNW 15.1 km/h 33.8 km/h 74% 0 mm 392 W/m2
12:39 9.7 °C 5.2 °C 1003.3 hPa WNW 13 km/h 24.1 km/h 73.8% 0 mm 438 W/m2
12:44 9.6 °C 5 °C 1003.3 hPa WNW 17.1 km/h 37 km/h 73% 0 mm 316 W/m2
12:49 9.4 °C 4.8 °C 1003.3 hPa West 14.5 km/h 30.6 km/h 73% 0 mm 316 W/m2
12:54 9.6 °C 4.9 °C 1002.9 hPa WNW 13.4 km/h 27.4 km/h 73% 0 mm 334 W/m2
12:59 9.7 °C 5.1 °C 1002.9 hPa WNW 13 km/h 27.4 km/h 73% 0 mm 311 W/m2
13:04 9.7 °C 4.8 °C 1002.9 hPa WNW 14 km/h 22.5 km/h 71.4% 0 mm 294 W/m2
13:09 9.8 °C 4.8 °C 1002.9 hPa WNW 14 km/h 25.7 km/h 70.9% 0 mm 299 W/m2
13:14 9.8 °C 4.6 °C 1002.9 hPa WNW 20.6 km/h 32.2 km/h 69.6% 0 mm 294 W/m2
13:19 9.7 °C 4.3 °C 1002.6 hPa WNW 18.8 km/h 32.2 km/h 69% 0 mm 278 W/m2
13:24 9.8 °C 4.4 °C 1002.9 hPa WNW 17.2 km/h 30.6 km/h 69.5% 0 mm 269 W/m2
13:29 9.8 °C 4.7 °C 1002.9 hPa WNW 14.2 km/h 27.4 km/h 70.4% 0 mm 274 W/m2
13:34 9.7 °C 4.6 °C 1002.9 hPa WNW 20.3 km/h 33.8 km/h 70% 0 mm 290 W/m2
13:39 9.7 °C 4.5 °C 1002.9 hPa WNW 21.2 km/h 33.8 km/h 70% 0 mm 276 W/m2
13:44 9.8 °C 4.5 °C 1002.9 hPa WNW 15.8 km/h 35.4 km/h 69.7% 0 mm 272 W/m2
13:49 9.8 °C 4.6 °C 1002.9 hPa WNW 15.6 km/h 27.4 km/h 70.1% 0 mm 271 W/m2
13:54 9.7 °C 4.6 °C 1002.9 hPa WNW 19.5 km/h 32.2 km/h 70.3% 0 mm 272 W/m2
13:59 9.6 °C 4.3 °C 1002.9 hPa WNW 19.2 km/h 33.8 km/h 69.7% 0 mm 269 W/m2
14:04 9.6 °C 4.2 °C 1002.6 hPa WNW 16.6 km/h 33.8 km/h 69% 0 mm 301 W/m2
14:09 9.6 °C 4.2 °C 1002.6 hPa WNW 16.4 km/h 33.8 km/h 69% 0 mm 269 W/m2
14:14 9.6 °C 4.2 °C 1002.6 hPa WNW 17.1 km/h 41.8 km/h 69.1% 0 mm 278 W/m2
14:19 9.7 °C 4.5 °C 1002.6 hPa WNW 16.4 km/h 30.6 km/h 70% 0 mm 278 W/m2
14:24 9.7 °C 4.4 °C 1002.9 hPa WNW 15.3 km/h 30.6 km/h 69.6% 0 mm 216 W/m2
14:29 9.7 °C 4.4 °C 1002.9 hPa WNW 10.9 km/h 25.7 km/h 69.8% 0 mm 192 W/m2
14:34 9.8 °C 4.6 °C 1002.9 hPa WNW 11.7 km/h 27.4 km/h 70% 0 mm 197 W/m2
14:39 9.7 °C 4.3 °C 1002.9 hPa WNW 14.2 km/h 27.4 km/h 69.2% 0 mm 192 W/m2
14:44 9.7 °C 4.3 °C 1002.6 hPa WNW 12.9 km/h 27.4 km/h 69% 0 mm 197 W/m2
14:49 9.7 °C 4.2 °C 1002.6 hPa West 13.4 km/h 25.7 km/h 69% 0 mm 155 W/m2
14:54 9.4 °C 4.2 °C 1002.6 hPa West 12.6 km/h 25.7 km/h 69.8% 0 mm 69 W/m2
14:59 9.1 °C 4 °C 1002.6 hPa WNW 14.6 km/h 27.4 km/h 70.4% 0 mm 83 W/m2
15:04 8.9 °C 3.7 °C 1002.6 hPa WNW 14.3 km/h 27.4 km/h 70.1% 0 mm 98 W/m2
15:09 8.8 °C 3.7 °C 1002.6 hPa WNW 11.4 km/h 25.7 km/h 70% 0 mm 95 W/m2
15:14 8.8 °C 3.7 °C 1002.6 hPa WNW 10.8 km/h 25.7 km/h 70.3% 0 mm 83 W/m2
15:19 8.8 °C 3.8 °C 1002.6 hPa WNW 10.5 km/h 19.3 km/h 71% 0 mm 83 W/m2
15:24 8.8 °C 3.8 °C 1002.9 hPa WNW 11.6 km/h 20.9 km/h 71% 0 mm 77 W/m2
15:29 8.8 °C 3.8 °C 1002.9 hPa WNW 9.8 km/h 20.9 km/h 71% 0 mm 84 W/m2
15:34 8.8 °C 3.7 °C 1002.6 hPa WNW 12.9 km/h 25.7 km/h 70.8% 0 mm 84 W/m2
15:39 8.8 °C 3.6 °C 1002.9 hPa WNW 13 km/h 25.7 km/h 70.3% 0 mm 63 W/m2
15:44 8.7 °C 3.6 °C 1002.9 hPa WNW 9.5 km/h 24.1 km/h 70.6% 0 mm 53 W/m2
15:49 8.5 °C 3.4 °C 1002.9 hPa WNW 9.7 km/h 20.9 km/h 70.3% 0 mm 26 W/m2
15:54 8.3 °C 3.3 °C 1002.9 hPa WNW 8.5 km/h 16.1 km/h 70.4% 0 mm 23 W/m2
15:59 8.2 °C 3.3 °C 1002.9 hPa WNW 7.6 km/h 14.5 km/h 71% 0 mm 23 W/m2
16:04 8.1 °C 3.3 °C 1002.9 hPa WNW 7.9 km/h 14.5 km/h 71.4% 0 mm 16 W/m2
16:09 8 °C 3.3 °C 1002.9 hPa WNW 7.4 km/h 14.5 km/h 72% 0 mm 16 W/m2
16:14 7.9 °C 3.4 °C 1002.9 hPa WNW 7.7 km/h 14.5 km/h 73% 0 mm 11 W/m2
16:19 7.8 °C 3.4 °C 1002.9 hPa WNW 8.9 km/h 16.1 km/h 73.5% 0 mm 9 W/m2
16:24 7.7 °C 3.4 °C 1002.9 hPa WNW 9.5 km/h 16.1 km/h 74% 0 mm 5 W/m2
16:29 7.7 °C 3.5 °C 1002.9 hPa WNW 8 km/h 17.7 km/h 75% 0 mm 5 W/m2
16:34 7.6 °C 3.5 °C 1002.9 hPa WNW 9.3 km/h 17.7 km/h 75.1% 0 mm 0 W/m2
16:39 7.6 °C 3.6 °C 1002.9 hPa WNW 7.1 km/h 14.5 km/h 76% 0 mm 0 W/m2
16:44 7.5 °C 3.5 °C 1002.9 hPa WNW 11.3 km/h 22.5 km/h 76% 0 mm 0 W/m2
16:49 7.6 °C 3.6 °C 1002.9 hPa WNW 9.3 km/h 19.3 km/h 76% 0 mm 0 W/m2
16:54 7.5 °C 3.5 °C 1002.9 hPa WNW 7.7 km/h 14.5 km/h 76% 0 mm 0 W/m2
16:59 7.4 °C 3.4 °C 1002.9 hPa WNW 7.7 km/h 14.5 km/h 76% 0 mm 0 W/m2
17:04 7.3 °C 3.4 °C 1002.9 hPa WNW 6.4 km/h 14.5 km/h 76.8% 0 mm 0 W/m2
17:09 7.2 °C 3.4 °C 1002.9 hPa WNW 8.2 km/h 16.1 km/h 77% 0 mm 0 W/m2
17:14 7.2 °C 3.4 °C 1002.6 hPa WNW 8.9 km/h 17.7 km/h 77% 0 mm 0 W/m2
17:19 7.1 °C 3.3 °C 1002.6 hPa WNW 9 km/h 17.7 km/h 77% 0 mm 0 W/m2
17:24 7.1 °C 3.3 °C 1002.6 hPa WNW 7.6 km/h 17.7 km/h 77% 0 mm 0 W/m2
17:29 6.9 °C 3.2 °C 1002.6 hPa WNW 7.9 km/h 14.5 km/h 77% 0 mm 0 W/m2
17:34 6.8 °C 3.2 °C 1002.9 hPa WNW 6.6 km/h 12.9 km/h 78% 0 mm 0 W/m2
17:39 6.7 °C 3.2 °C 1002.9 hPa WNW 6.1 km/h 12.9 km/h 78% 0 mm 0 W/m2
17:44 6.7 °C 3.1 °C 1002.6 hPa WNW 6.6 km/h 12.9 km/h 78% 0 mm 0 W/m2
17:49 6.6 °C 3 °C 1002.6 hPa WNW 7.7 km/h 14.5 km/h 78.4% 0 mm 0 W/m2
17:54 6.4 °C 3 °C 1002.9 hPa WNW 7.1 km/h 12.9 km/h 79% 0 mm 0 W/m2
17:59 6.3 °C 3.1 °C 1002.9 hPa WNW 6.8 km/h 12.9 km/h 79.7% 0 mm 0 W/m2
18:04 6.3 °C 3.1 °C 1002.6 hPa WNW 6.4 km/h 14.5 km/h 80% 0 mm 0 W/m2
18:09 6.3 °C 3.1 °C 1002.6 hPa WNW 6.6 km/h 14.5 km/h 80% 0 mm 0 W/m2
18:14 6.3 °C 3.1 °C 1002.6 hPa West 6.3 km/h 11.3 km/h 80.1% 0 mm 0 W/m2
18:19 6.3 °C 3.3 °C 1002.6 hPa WNW 4.5 km/h 11.3 km/h 81% 0 mm 0 W/m2
18:24 6.2 °C 3.2 °C 1002.9 hPa WNW 3.5 km/h 8 km/h 81% 0 mm 0 W/m2
18:29 6 °C 3.1 °C 1002.6 hPa WNW 3.7 km/h 8 km/h 81.2% 0 mm 0 W/m2
18:34 5.9 °C 3.1 °C 1002.9 hPa WNW 4.8 km/h 8 km/h 82% 0 mm 0 W/m2
18:39 5.8 °C 3 °C 1002.6 hPa WNW 5.5 km/h 8 km/h 82% 0 mm 0 W/m2
18:44 5.7 °C 3 °C 1002.9 hPa WNW 5.5 km/h 9.7 km/h 82.5% 0 mm 0 W/m2
18:49 5.8 °C 3.1 °C 1002.6 hPa WNW 3.7 km/h 9.7 km/h 83% 0 mm 0 W/m2
18:54 5.8 °C 3.1 °C 1002.6 hPa WNW 2.1 km/h 6.4 km/h 82.9% 0 mm 0 W/m2
18:59 5.8 °C 3 °C 1002.6 hPa WNW 2.9 km/h 6.4 km/h 82% 0 mm 0 W/m2
19:04 5.8 °C 3 °C 1002.6 hPa WNW 2.9 km/h 6.4 km/h 82% 0 mm 0 W/m2
19:09 5.7 °C 2.9 °C 1002.6 hPa WNW 2.1 km/h 4.8 km/h 82% 0 mm 0 W/m2
19:14 5.7 °C 2.9 °C 1002.6 hPa WNW 3.1 km/h 8 km/h 82% 0 mm 0 W/m2
19:19 5.7 °C 2.9 °C 1002.6 hPa WNW 1.1 km/h 8 km/h 82% 0 mm 0 W/m2
19:24 5.7 °C 2.9 °C 1002.6 hPa WNW 1.8 km/h 4.8 km/h 82% 0 mm 0 W/m2
19:29 5.6 °C 2.8 °C 1002.9 hPa WNW 3.2 km/h 8 km/h 82% 0 mm 0 W/m2
19:34 5.6 °C 2.8 °C 1002.9 hPa WNW 1.9 km/h 6.4 km/h 82.3% 0 mm 0 W/m2
19:39 5.6 °C 2.9 °C 1002.9 hPa WNW 2.6 km/h 8 km/h 83% 0 mm 0 W/m2
19:44 5.7 °C 3 °C 1002.9 hPa WNW 2.9 km/h 8 km/h 83% 0 mm 0 W/m2
19:49 5.7 °C 3 °C 1002.9 hPa WNW 2.6 km/h 6.4 km/h 83% 0 mm 0 W/m2
19:54 5.8 °C 3.1 °C 1002.9 hPa WNW 4.3 km/h 8 km/h 83% 0 mm 0 W/m2
19:59 5.7 °C 3 °C 1002.9 hPa WNW 3.2 km/h 6.4 km/h 82.7% 0 mm 0 W/m2
20:04 5.7 °C 2.9 °C 1002.9 hPa WNW 1.9 km/h 4.8 km/h 82% 0 mm 0 W/m2
20:09 5.6 °C 2.9 °C 1002.9 hPa WNW 1.9 km/h 6.4 km/h 82.8% 0 mm 0 W/m2
20:14 5.6 °C 2.8 °C 1002.9 hPa WNW 1.1 km/h 6.4 km/h 83% 0 mm 0 W/m2
20:19 5.4 °C 2.7 °C 1002.9 hPa WNW 1.1 km/h 3.2 km/h 83% 0 mm 0 W/m2
20:24 5.3 °C 2.7 °C 1002.9 hPa WNW 1.1 km/h 3.2 km/h 83% 0 mm 0 W/m2
20:29 5.2 °C 2.6 °C 1002.9 hPa WNW 2.6 km/h 3.2 km/h 83.3% 0 mm 0 W/m2
20:34 5.1 °C 2.6 °C 1002.6 hPa WNW 0.8 km/h 3.2 km/h 84% 0 mm 0 W/m2
20:39 5.1 °C 2.6 °C 1002.6 hPa WNW 0.5 km/h 1.6 km/h 84% 0 mm 0 W/m2
20:44 5 °C 2.6 °C 1002.6 hPa WNW 0.2 km/h 1.6 km/h 84.6% 0 mm 0 W/m2
20:49 4.9 °C 2.7 °C 1002.6 hPa Calm   1.6 km/h 85% 0 mm 0 W/m2
20:54 4.9 °C 2.6 °C 1002.6 hPa Calm   1.6 km/h 85% 0 mm 0 W/m2
20:59 4.9 °C 2.7 °C 1002.6 hPa WNW 0.8 km/h 4.8 km/h 85% 0 mm 0 W/m2
21:04 5 °C 2.7 °C 1002.6 hPa Calm     85% 0 mm 0 W/m2
21:09 5 °C 2.7 °C 1002.6 hPa Calm   1.6 km/h 85% 0 mm 0 W/m2
21:14 4.9 °C 2.7 °C 1002.6 hPa Calm   1.6 km/h 85.7% 0 mm 0 W/m2
21:19 4.8 °C 2.7 °C 1002.6 hPa Calm   1.6 km/h 85.8% 0 mm 0 W/m2
21:24 4.6 °C 2.5 °C 1002.6 hPa WNW 0.2 km/h 1.6 km/h 86% 0 mm 0 W/m2
21:29 4.4 °C 2.3 °C 1002.6 hPa WNW 0.2 km/h 1.6 km/h 86% 0 mm 0 W/m2
21:34 4.2 °C 2.2 °C 1002.6 hPa WNW 1.9 km/h 6.4 km/h 86% 0 mm 0 W/m2
21:39 4.2 °C 2.2 °C 1002.6 hPa WNW 2.6 km/h 9.7 km/h 86.3% 0 mm 0 W/m2
21:44 4.2 °C 2.2 °C 1002.6 hPa WNW 1.6 km/h 6.4 km/h 87% 0 mm 0 W/m2
21:49 4.2 °C 2.2 °C 1002.3 hPa WNW 1.8 km/h 4.8 km/h 87% 0 mm 0 W/m2
21:54 4.1 °C 2.1 °C 1002.3 hPa Calm   3.2 km/h 87% 0 mm 0 W/m2
21:59 3.8 °C 1.8 °C 1002.3 hPa Calm   1.6 km/h 87% 0 mm 0 W/m2
22:04 3.7 °C 1.7 °C 1002.3 hPa WNW 1.3 km/h 3.2 km/h 87% 0 mm 0 W/m2
22:09 3.8 °C 1.9 °C 1002.6 hPa WNW 2.6 km/h 4.8 km/h 87.6% 0 mm 0 W/m2
22:14 4 °C 2.2 °C 1002.3 hPa WNW 3.7 km/h 8 km/h 88% 0 mm 0 W/m2
22:19 4.2 °C 2.4 °C 1002.3 hPa WNW 4 km/h 8 km/h 88% 0 mm 0 W/m2
22:24 4.3 °C 2.6 °C 1002.3 hPa WNW 3.5 km/h 8 km/h 88% 0 mm 0 W/m2
22:29 4.5 °C 2.7 °C 1002.3 hPa WNW 3.9 km/h 8 km/h 88% 0 mm 0 W/m2
22:34 4.6 °C 2.8 °C 1002.3 hPa WNW 3.2 km/h 8 km/h 88% 0 mm 0 W/m2
22:39 4.6 °C 2.8 °C 1002.3 hPa WNW 3.2 km/h 8 km/h 88% 0 mm 0 W/m2
22:44 4.6 °C 2.7 °C 1002.3 hPa WNW 2.7 km/h 6.4 km/h 87.3% 0 mm 0 W/m2
22:49 4.6 °C 2.6 °C 1002.3 hPa WNW 3.1 km/h 8 km/h 87% 0 mm 0 W/m2
22:54 4.7 °C 2.7 °C 1002.3 hPa WNW 3.1 km/h 8 km/h 87% 0 mm 0 W/m2
22:59 4.7 °C 2.7 °C 1002.3 hPa WNW 4.8 km/h 12.9 km/h 87% 0 mm 0 W/m2
23:04 4.7 °C 2.7 °C 1002.3 hPa NW 5 km/h 12.9 km/h 87% 0 mm 0 W/m2
23:09 4.8 °C 2.8 °C 1002.3 hPa NW 5.8 km/h 12.9 km/h 87% 0 mm 0 W/m2
23:14 4.9 °C 2.8 °C 1002.3 hPa NW 3.9 km/h 8 km/h 86.9% 0 mm 0 W/m2
23:19 4.9 °C 2.8 °C 1002.3 hPa NW 4.5 km/h 8 km/h 86.2% 0 mm 0 W/m2
23:24 4.9 °C 2.8 °C 1002.3 hPa NW 4.2 km/h 9.7 km/h 86% 0 mm 0 W/m2
23:29 5 °C 2.9 °C 1002.3 hPa NW 4 km/h 8 km/h 86% 0 mm 0 W/m2
23:34 4.9 °C 2.8 °C 1002.3 hPa NW 1.4 km/h 8 km/h 86% 0 mm 0 W/m2
23:39 4.9 °C 2.8 °C 1002.3 hPa NW 0.8 km/h 3.2 km/h 86% 0 mm 0 W/m2
23:44 4.8 °C 2.7 °C 1001.9 hPa NW 0.6 km/h 3.2 km/h 86% 0 mm 0 W/m2
23:49 4.8 °C 2.5 °C 1001.9 hPa NW 1.4 km/h 4.8 km/h 85.2% 0 mm 0 W/m2
23:54 4.7 °C 2.6 °C 1001.9 hPa NW 1.3 km/h 3.2 km/h 85.8% 0 mm 0 W/m2
23:59 4.7 °C 2.6 °C 1001.9 hPa NW 0.5 km/h 3.2 km/h 86% 0 mm 0 W/m2
Bath Spa Weather
Compliments of Weather Underground - 2 mb